Terminal Aerodrome Forecast
Issued by NWS

Home | Current Version | Previous Version | Text Only | Print | Product List | Glossary On
Versions: 1 2 3 4 5 6 7 8 9 10 11 12 13 14 15 16 17 18 19 20 21 22 23 24 25 26 27
000
FTUS43 KDLH 211500 AAC
TAFHYR
TAF AMD
KHYR 211500Z 2115/2212 VRB03KT P6SM BKN004
     FM211600 28008KT P6SM SCT015 BKN050
     FM212100 32012G20KT P6SM SCT060
     FM220200 34008KT P6SM SKC=

USA.gov is the U.S. government's official web portal to all federal, state and local government web resources and services.